Terminal Aerodrome Forecast
Issued by NWS Sioux Falls, SD

Home | Current Version | Previous Version | Text Only | Print | Product List | Glossary On
Versions: 1 2 3 4 5 6 7 8 9 10 11 12 13 14 15 16 17 18 19 20 21 22 23 24 25 26 27 28 29 30 31 32 33 34 35 36 37 38 39 40 41 42 43 44 45 46 47 48 49
000
FTUS43 KFSD 042320
TAFSUX
TAF
KSUX 042320Z 0500/0524 27005KT P6SM SKC
     FM050200 17006KT P6SM SKC
     FM050800 17012KT P6SM BKN150 WS020/21040KT
     FM051500 18012KT P6SM OVC100
     FM052200 28013KT P6SM BKN025=

USA.gov is the U.S. government's official web portal to all federal, state and local government web resources and services.